Igarka, Russia
Current Conditions -  °F | °C
As of 7:00 AM on Wednesday 26 Nov 2014 (Local Time) from USNN Reporting Station
Light Snow Light Snow  
Wind Chill:   Ceiling: 1400
Heat Index: 16°   Visibility: 4mi
Dew Point: 10°   Wind: 7mph
Humidity: 79%   Direction: 250°WSW
Pressure: 29.35"   Gusts: 13mph
Location:  67.47°N, 86.58°E
Report Text: USNN 260000Z 25003G06MPS 6000 -SN OVC014 M09/M12 Q0994 NOSIGRMK QFE741 21410332
Loading
Personal Weather Stations






























Interactive Weather Map New forecast layout! Learn more

10-Day Weather Forecast

Advertisements
Track Severe Weather on mobile